Terminal Aerodrome Forecast
Issued by NWS Denver/Boulder, CO

Home | Current Version | Previous Version | Text Only | Print | Product List | Glossary On
Versions: 1 2 3 4 5 6 7 8 9 10 11 12 13 14 15 16 17 18 19 20 21 22 23 24 25 26 27 28 29 30 31 32 33 34 35 36 37 38 39 40 41 42 43 44 45 46 47 48 49 50
000
FTUS45 KBOU 302104 AAA
TAFDEN
TAF AMD
KDEN 302104Z 3021/3124 VRB04KT P6SM FEW080 SCT140 BKN250
     FM302300 14011KT P6SM FEW080 SCT140
     FM310100 15010KT P6SM VCSH SCT080 BKN140
      TEMPO 3101/3103 VRB25G35KT BKN090
     FM310400 17011KT P6SM VCSH SCT090 BKN140
     FM310800 23007KT P6SM SCT090 BKN130
     FM311400 30009KT P6SM VCSH SCT080 BKN120
     FM311800 01013G24KT P6SM SCT070 BKN110 PROB30 3120/3124 5SM
      -TSRA FU BKN070CB=

USA.gov is the U.S. government's official web portal to all federal, state and local government web resources and services.